Poreč, Croatia

11:39 AM CEST on september 22, 2017 (GMT +0200)
AC Valkanela | | Change Station

Viš 30 ft 45.17 °N, 13.60 °E | Updated 7 seconds ago

Jasno
Jasno
71.4 °F
Feels Like 76 °F
N
3.8
Veter Spremenljivo Veter od JV
Gusts 5.4 mph

Danes
High -- | Low -- °F
--% Chance of Precip.
Yesterday
High -- | Low -- °F
Precip. -- v
Zračni tlak 30.15 v
Vidljivost -9999.0 milje
Oblaki
Toplotni indeks 76 °F
Rosišče 55 °F
Vlažnost 57%
Padavine 0.00 v
Snow Depth Not available.
6:52 AM 7:03 PM
Naraščajoči krajec, 5% visible
METAR LDPL 220900Z 10006KT 070V130 CAVOK 20/11 Q1021 NOSIG
Zračni tlak 30.15 v
Vidljivost -9999.0 milje
Oblaki
Toplotni indeks 76 °F
Rosišče 55 °F
Vlažnost 57%
Padavine 0.00 v
Snow Depth Not available.
6:52 AM 7:03 PM
Naraščajoči krajec, 5% visible
METAR LDPL 220900Z 10006KT 070V130 CAVOK 20/11 Q1021 NOSIG

Get Severe Weather Alerts

Thanks for signing up!

Be on the lookout for a verification email in your inbox.

You'll start receiving the daily forecast at 6 AM.

×

10-Day Weather Forecast

×

Almanac

Astronomija

Sep. 22, 2017 Rise Set
Actual Time
Civil Twilight
Nautical Twilight
Astronomical Twilight
Moon
Length Of Visible Light
Dolžina dneva
Tomorrow will be .
, % of the Moon is Illuminated

Današnji ekstremi

Country Highs Country Lows

Community

WunderPhotos

Category 6

Welcome to Category 6. This is the collective home for Weather Underground's featured writeups by Dr. Jeff Masters (right), Bob Henson (left), Chris Burt, and other regular contributors.

Nearby

Air Quality

  Air Quality AQ Index Pollutant
Not available.

Snow Depth

Station Depth Višina

Earthquake Activity

City Distance Mag. Time & Date
Minimum magnitude displayed is 2.5.

Coastal Water Temperatures

Mesto Temperatura

Stations

Nearby Weather Stations

Station Location Temp Občutek zaradi vetra Rosišče Vlažnost Veter Precip. Viš Obnovljeno Type